Terminal Aerodrome Forecast
Issued by NWS Spokane, WA

Home | Current Version | Previous Version | Text Only | Print | Product List | Glossary On
Versions: 1 2 3 4 5 6 7 8 9 10 11 12 13 14 15 16 17 18 19 20 21 22 23 24 25 26 27 28 29 30 31 32 33 34
000
FTUS46 KOTX 021728
TAFLWS
TAF
KLWS 021728Z 0218/0318 35005KT P6SM VCSH BKN070 OVC090
     FM022100 31010G18KT P6SM VCSH SCT050 BKN060 OVC100
     FM030200 30008KT P6SM -SHRA BKN060 OVC090
     FM030900 22005KT P6SM SCT070 BKN120
     FM031700 32006KT P6SM SCT120=

USA.gov is the U.S. government's official web portal to all federal, state and local government web resources and services.